sensor_id;sensor_type;location;lat;lon;timestamp;P1;durP1;ratioP1;P2;durP2;ratioP2
14776;SDS011;7480;43.124;25.686;2024-01-16T00:01:41;3.20;;;2.43;;
14776;SDS011;7480;43.124;25.686;2024-01-16T00:04:09;3.43;;;2.57;;
14776;SDS011;7480;43.124;25.686;2024-01-16T00:06:40;4.23;;;2.77;;
14776;SDS011;7480;43.124;25.686;2024-01-16T00:09:08;4.30;;;3.10;;
14776;SDS011;7480;43.124;25.686;2024-01-16T00:11:39;5.80;;;2.80;;
14776;SDS011;7480;43.124;25.686;2024-01-16T00:14:06;2.97;;;2.37;;
14776;SDS011;7480;43.124;25.686;2024-01-16T00:16:33;4.13;;;2.53;;
14776;SDS011;7480;43.124;25.686;2024-01-16T00:19:00;2.83;;;1.90;;
14776;SDS011;7480;43.124;25.686;2024-01-16T00:21:27;2.83;;;2.03;;
14776;SDS011;7480;43.124;25.686;2024-01-16T00:23:53;3.23;;;2.27;;
14776;SDS011;7480;43.124;25.686;2024-01-16T00:26:20;3.00;;;2.23;;
14776;SDS011;7480;43.124;25.686;2024-01-16T00:28:47;3.67;;;2.03;;
14776;SDS011;7480;43.124;25.686;2024-01-16T00:31:14;4.73;;;3.47;;
14776;SDS011;7480;43.124;25.686;2024-01-16T00:33:41;2.20;;;1.83;;
14776;SDS011;7480;43.124;25.686;2024-01-16T00:36:07;2.93;;;2.03;;
14776;SDS011;7480;43.124;25.686;2024-01-16T00:38:34;3.13;;;2.23;;
14776;SDS011;7480;43.124;25.686;2024-01-16T00:41:01;2.50;;;1.93;;
14776;SDS011;7480;43.124;25.686;2024-01-16T00:43:27;3.07;;;2.20;;
14776;SDS011;7480;43.124;25.686;2024-01-16T00:45:54;2.50;;;1.83;;
14776;SDS011;7480;43.124;25.686;2024-01-16T00:48:20;3.07;;;2.50;;
14776;SDS011;7480;43.124;25.686;2024-01-16T00:50:47;3.27;;;2.00;;
14776;SDS011;7480;43.124;25.686;2024-01-16T00:53:16;1.80;;;1.60;;
14776;SDS011;7480;43.124;25.686;2024-01-16T00:55:42;2.57;;;1.90;;
14776;SDS011;7480;43.124;25.686;2024-01-16T00:58:09;2.70;;;1.80;;
14776;SDS011;7480;43.124;25.686;2024-01-16T01:00:35;2.67;;;1.67;;
14776;SDS011;7480;43.124;25.686;2024-01-16T01:03:04;3.50;;;1.93;;
14776;SDS011;7480;43.124;25.686;2024-01-16T01:05:30;3.20;;;2.07;;
14776;SDS011;7480;43.124;25.686;2024-01-16T01:07:57;3.03;;;2.10;;
14776;SDS011;7480;43.124;25.686;2024-01-16T01:10:24;3.07;;;2.13;;
14776;SDS011;7480;43.124;25.686;2024-01-16T01:12:51;2.47;;;1.90;;
14776;SDS011;7480;43.124;25.686;2024-01-16T01:15:21;3.27;;;2.10;;
14776;SDS011;7480;43.124;25.686;2024-01-16T01:17:50;3.80;;;2.10;;
14776;SDS011;7480;43.124;25.686;2024-01-16T01:20:18;2.13;;;1.87;;
14776;SDS011;7480;43.124;25.686;2024-01-16T01:22:45;2.57;;;2.20;;
14776;SDS011;7480;43.124;25.686;2024-01-16T01:25:11;2.17;;;1.83;;
14776;SDS011;7480;43.124;25.686;2024-01-16T01:27:39;2.27;;;1.83;;
14776;SDS011;7480;43.124;25.686;2024-01-16T01:30:06;2.90;;;2.07;;
14776;SDS011;7480;43.124;25.686;2024-01-16T01:32:35;2.27;;;1.83;;
14776;SDS011;7480;43.124;25.686;2024-01-16T01:35:02;2.40;;;1.90;;
14776;SDS011;7480;43.124;25.686;2024-01-16T01:37:28;2.93;;;2.00;;
14776;SDS011;7480;43.124;25.686;2024-01-16T01:39:55;3.10;;;2.30;;
14776;SDS011;7480;43.124;25.686;2024-01-16T01:42:22;2.87;;;2.40;;
14776;SDS011;7480;43.124;25.686;2024-01-16T01:44:49;4.37;;;2.80;;
14776;SDS011;7480;43.124;25.686;2024-01-16T01:47:16;4.27;;;2.67;;
14776;SDS011;7480;43.124;25.686;2024-01-16T01:49:42;4.23;;;3.20;;
14776;SDS011;7480;43.124;25.686;2024-01-16T01:52:10;3.83;;;2.53;;
14776;SDS011;7480;43.124;25.686;2024-01-16T01:54:36;3.63;;;2.97;;
14776;SDS011;7480;43.124;25.686;2024-01-16T01:57:03;4.53;;;3.07;;
14776;SDS011;7480;43.124;25.686;2024-01-16T01:59:30;4.07;;;2.80;;
14776;SDS011;7480;43.124;25.686;2024-01-16T02:01:57;5.40;;;2.80;;
14776;SDS011;7480;43.124;25.686;2024-01-16T02:04:24;5.30;;;2.60;;
14776;SDS011;7480;43.124;25.686;2024-01-16T02:06:51;3.30;;;2.50;;
14776;SDS011;7480;43.124;25.686;2024-01-16T02:09:17;4.03;;;2.57;;
14776;SDS011;7480;43.124;25.686;2024-01-16T02:11:44;4.10;;;2.97;;
14776;SDS011;7480;43.124;25.686;2024-01-16T02:14:11;4.13;;;3.10;;
14776;SDS011;7480;43.124;25.686;2024-01-16T02:16:38;5.43;;;3.33;;
14776;SDS011;7480;43.124;25.686;2024-01-16T02:19:06;3.83;;;3.17;;
14776;SDS011;7480;43.124;25.686;2024-01-16T02:21:47;4.93;;;3.07;;
14776;SDS011;7480;43.124;25.686;2024-01-16T02:24:17;4.83;;;3.30;;
14776;SDS011;7480;43.124;25.686;2024-01-16T02:26:44;4.93;;;3.57;;
14776;SDS011;7480;43.124;25.686;2024-01-16T02:29:11;4.87;;;3.60;;
14776;SDS011;7480;43.124;25.686;2024-01-16T02:31:38;6.63;;;4.67;;
14776;SDS011;7480;43.124;25.686;2024-01-16T02:34:05;5.50;;;3.43;;
14776;SDS011;7480;43.124;25.686;2024-01-16T02:36:32;8.30;;;4.67;;
14776;SDS011;7480;43.124;25.686;2024-01-16T02:38:58;6.23;;;3.50;;
14776;SDS011;7480;43.124;25.686;2024-01-16T02:41:25;8.20;;;4.40;;
14776;SDS011;7480;43.124;25.686;2024-01-16T02:43:52;6.80;;;3.10;;
14776;SDS011;7480;43.124;25.686;2024-01-16T02:46:19;4.90;;;3.40;;
14776;SDS011;7480;43.124;25.686;2024-01-16T02:48:45;4.63;;;3.53;;
14776;SDS011;7480;43.124;25.686;2024-01-16T02:51:13;4.37;;;3.30;;
14776;SDS011;7480;43.124;25.686;2024-01-16T02:53:39;5.63;;;3.40;;
14776;SDS011;7480;43.124;25.686;2024-01-16T02:56:07;4.80;;;3.33;;
14776;SDS011;7480;43.124;25.686;2024-01-16T02:58:34;4.33;;;3.43;;
14776;SDS011;7480;43.124;25.686;2024-01-16T03:01:01;5.93;;;3.20;;
14776;SDS011;7480;43.124;25.686;2024-01-16T03:03:28;5.00;;;3.60;;
14776;SDS011;7480;43.124;25.686;2024-01-16T03:05:54;5.43;;;3.63;;
14776;SDS011;7480;43.124;25.686;2024-01-16T03:08:22;6.47;;;4.17;;
14776;SDS011;7480;43.124;25.686;2024-01-16T03:10:49;10.87;;;5.20;;
14776;SDS011;7480;43.124;25.686;2024-01-16T03:13:16;8.03;;;4.73;;
14776;SDS011;7480;43.124;25.686;2024-01-16T03:15:42;6.43;;;4.43;;
14776;SDS011;7480;43.124;25.686;2024-01-16T03:18:09;10.53;;;6.50;;
14776;SDS011;7480;43.124;25.686;2024-01-16T03:20:36;9.17;;;5.87;;
14776;SDS011;7480;43.124;25.686;2024-01-16T03:23:03;10.67;;;7.20;;
14776;SDS011;7480;43.124;25.686;2024-01-16T03:25:30;9.97;;;7.70;;
14776;SDS011;7480;43.124;25.686;2024-01-16T03:27:57;14.53;;;8.03;;
14776;SDS011;7480;43.124;25.686;2024-01-16T03:30:24;17.27;;;10.47;;
14776;SDS011;7480;43.124;25.686;2024-01-16T03:32:51;15.43;;;9.53;;
14776;SDS011;7480;43.124;25.686;2024-01-16T03:35:17;12.60;;;8.23;;
14776;SDS011;7480;43.124;25.686;2024-01-16T03:37:44;16.10;;;10.07;;
14776;SDS011;7480;43.124;25.686;2024-01-16T03:40:11;17.93;;;11.43;;
14776;SDS011;7480;43.124;25.686;2024-01-16T03:42:39;14.93;;;10.30;;
14776;SDS011;7480;43.124;25.686;2024-01-16T03:45:05;18.10;;;10.10;;
14776;SDS011;7480;43.124;25.686;2024-01-16T03:47:32;17.50;;;11.23;;
14776;SDS011;7480;43.124;25.686;2024-01-16T03:49:59;19.93;;;11.00;;
14776;SDS011;7480;43.124;25.686;2024-01-16T03:52:26;21.27;;;13.17;;
14776;SDS011;7480;43.124;25.686;2024-01-16T03:54:52;15.33;;;9.33;;
14776;SDS011;7480;43.124;25.686;2024-01-16T03:57:19;17.43;;;11.40;;
14776;SDS011;7480;43.124;25.686;2024-01-16T03:59:45;20.27;;;12.80;;
14776;SDS011;7480;43.124;25.686;2024-01-16T04:02:12;22.97;;;12.77;;
14776;SDS011;7480;43.124;25.686;2024-01-16T04:04:39;18.93;;;12.83;;
14776;SDS011;7480;43.124;25.686;2024-01-16T04:07:05;20.57;;;12.20;;
14776;SDS011;7480;43.124;25.686;2024-01-16T04:09:32;21.13;;;12.07;;
14776;SDS011;7480;43.124;25.686;2024-01-16T04:11:59;20.60;;;12.53;;
14776;SDS011;7480;43.124;25.686;2024-01-16T04:14:25;25.17;;;14.87;;
14776;SDS011;7480;43.124;25.686;2024-01-16T04:16:52;24.77;;;15.37;;
14776;SDS011;7480;43.124;25.686;2024-01-16T04:19:19;23.57;;;14.77;;
14776;SDS011;7480;43.124;25.686;2024-01-16T04:21:46;22.27;;;13.23;;
14776;SDS011;7480;43.124;25.686;2024-01-16T04:24:12;21.50;;;14.20;;
14776;SDS011;7480;43.124;25.686;2024-01-16T04:26:39;19.03;;;11.50;;
14776;SDS011;7480;43.124;25.686;2024-01-16T04:29:05;22.17;;;14.10;;
14776;SDS011;7480;43.124;25.686;2024-01-16T04:31:33;17.93;;;10.77;;
14776;SDS011;7480;43.124;25.686;2024-01-16T04:34:05;15.33;;;8.83;;
14776;SDS011;7480;43.124;25.686;2024-01-16T04:36:32;19.37;;;12.30;;
14776;SDS011;7480;43.124;25.686;2024-01-16T04:38:58;19.73;;;13.57;;
14776;SDS011;7480;43.124;25.686;2024-01-16T04:41:26;21.23;;;14.10;;
14776;SDS011;7480;43.124;25.686;2024-01-16T04:43:53;22.67;;;14.77;;
14776;SDS011;7480;43.124;25.686;2024-01-16T04:46:19;18.13;;;10.73;;
14776;SDS011;7480;43.124;25.686;2024-01-16T04:48:46;18.10;;;12.50;;
14776;SDS011;7480;43.124;25.686;2024-01-16T04:51:13;18.63;;;11.80;;
14776;SDS011;7480;43.124;25.686;2024-01-16T04:53:39;21.33;;;13.20;;
14776;SDS011;7480;43.124;25.686;2024-01-16T04:56:07;22.30;;;13.13;;
14776;SDS011;7480;43.124;25.686;2024-01-16T04:58:33;20.20;;;13.93;;
14776;SDS011;7480;43.124;25.686;2024-01-16T05:01:00;22.53;;;15.57;;
14776;SDS011;7480;43.124;25.686;2024-01-16T05:03:28;28.00;;;15.70;;
14776;SDS011;7480;43.124;25.686;2024-01-16T05:05:55;19.37;;;12.50;;
14776;SDS011;7480;43.124;25.686;2024-01-16T05:08:23;22.10;;;13.97;;
14776;SDS011;7480;43.124;25.686;2024-01-16T05:10:51;18.47;;;11.50;;
14776;SDS011;7480;43.124;25.686;2024-01-16T05:13:17;20.33;;;12.17;;
14776;SDS011;7480;43.124;25.686;2024-01-16T05:15:44;12.53;;;8.67;;
14776;SDS011;7480;43.124;25.686;2024-01-16T05:18:10;21.70;;;14.00;;
14776;SDS011;7480;43.124;25.686;2024-01-16T05:20:38;20.43;;;13.47;;
14776;SDS011;7480;43.124;25.686;2024-01-16T05:23:05;11.30;;;7.40;;
14776;SDS011;7480;43.124;25.686;2024-01-16T05:25:32;12.43;;;9.37;;
14776;SDS011;7480;43.124;25.686;2024-01-16T05:27:59;17.80;;;11.17;;
14776;SDS011;7480;43.124;25.686;2024-01-16T05:30:25;14.33;;;9.53;;
14776;SDS011;7480;43.124;25.686;2024-01-16T05:32:52;14.67;;;9.87;;
14776;SDS011;7480;43.124;25.686;2024-01-16T05:35:19;12.10;;;7.17;;
14776;SDS011;7480;43.124;25.686;2024-01-16T05:37:48;15.47;;;9.83;;
14776;SDS011;7480;43.124;25.686;2024-01-16T05:40:15;9.87;;;6.93;;
14776;SDS011;7480;43.124;25.686;2024-01-16T05:42:41;12.20;;;6.93;;
14776;SDS011;7480;43.124;25.686;2024-01-16T05:45:08;10.53;;;7.20;;
14776;SDS011;7480;43.124;25.686;2024-01-16T05:47:35;6.87;;;5.13;;
14776;SDS011;7480;43.124;25.686;2024-01-16T05:50:02;8.77;;;6.43;;
14776;SDS011;7480;43.124;25.686;2024-01-16T05:52:29;8.97;;;5.60;;
14776;SDS011;7480;43.124;25.686;2024-01-16T05:54:55;10.83;;;6.73;;
14776;SDS011;7480;43.124;25.686;2024-01-16T05:57:24;9.03;;;6.60;;
14776;SDS011;7480;43.124;25.686;2024-01-16T05:59:51;7.33;;;5.03;;
14776;SDS011;7480;43.124;25.686;2024-01-16T06:02:17;6.93;;;4.73;;
14776;SDS011;7480;43.124;25.686;2024-01-16T06:04:44;7.83;;;5.20;;
14776;SDS011;7480;43.124;25.686;2024-01-16T06:07:10;7.50;;;4.57;;
14776;SDS011;7480;43.124;25.686;2024-01-16T06:09:38;7.73;;;5.20;;
14776;SDS011;7480;43.124;25.686;2024-01-16T06:12:06;6.87;;;4.40;;
14776;SDS011;7480;43.124;25.686;2024-01-16T06:14:33;5.63;;;4.20;;
14776;SDS011;7480;43.124;25.686;2024-01-16T06:17:00;9.07;;;5.30;;
14776;SDS011;7480;43.124;25.686;2024-01-16T06:19:27;8.20;;;5.70;;
14776;SDS011;7480;43.124;25.686;2024-01-16T06:21:54;6.30;;;4.57;;
14776;SDS011;7480;43.124;25.686;2024-01-16T06:24:20;5.60;;;4.13;;
14776;SDS011;7480;43.124;25.686;2024-01-16T06:26:47;4.67;;;3.20;;
14776;SDS011;7480;43.124;25.686;2024-01-16T06:29:14;5.07;;;3.60;;
14776;SDS011;7480;43.124;25.686;2024-01-16T06:31:56;8.63;;;4.70;;
14776;SDS011;7480;43.124;25.686;2024-01-16T06:34:23;6.40;;;3.90;;
14776;SDS011;7480;43.124;25.686;2024-01-16T06:36:49;5.57;;;3.80;;
14776;SDS011;7480;43.124;25.686;2024-01-16T06:39:16;7.03;;;4.17;;
14776;SDS011;7480;43.124;25.686;2024-01-16T06:41:43;5.60;;;3.10;;
14776;SDS011;7480;43.124;25.686;2024-01-16T06:44:10;5.13;;;3.40;;
14776;SDS011;7480;43.124;25.686;2024-01-16T06:46:37;5.30;;;3.50;;
14776;SDS011;7480;43.124;25.686;2024-01-16T06:49:03;4.97;;;3.50;;
14776;SDS011;7480;43.124;25.686;2024-01-16T06:51:30;3.63;;;2.73;;
14776;SDS011;7480;43.124;25.686;2024-01-16T06:53:56;3.70;;;2.77;;
14776;SDS011;7480;43.124;25.686;2024-01-16T06:56:23;3.80;;;2.30;;
14776;SDS011;7480;43.124;25.686;2024-01-16T06:58:50;4.00;;;2.70;;
14776;SDS011;7480;43.124;25.686;2024-01-16T07:01:18;3.40;;;2.63;;
14776;SDS011;7480;43.124;25.686;2024-01-16T07:03:44;4.27;;;2.20;;
14776;SDS011;7480;43.124;25.686;2024-01-16T07:06:11;3.30;;;2.33;;
14776;SDS011;7480;43.124;25.686;2024-01-16T07:08:39;2.77;;;2.47;;
14776;SDS011;7480;43.124;25.686;2024-01-16T07:11:05;8.10;;;4.27;;
14776;SDS011;7480;43.124;25.686;2024-01-16T07:13:35;4.03;;;3.13;;
14776;SDS011;7480;43.124;25.686;2024-01-16T07:16:01;3.40;;;2.60;;
14776;SDS011;7480;43.124;25.686;2024-01-16T07:18:28;2.83;;;2.20;;
14776;SDS011;7480;43.124;25.686;2024-01-16T07:20:55;4.00;;;2.27;;
14776;SDS011;7480;43.124;25.686;2024-01-16T07:23:26;3.80;;;2.63;;
14776;SDS011;7480;43.124;25.686;2024-01-16T07:25:52;2.53;;;2.20;;
14776;SDS011;7480;43.124;25.686;2024-01-16T07:28:19;1.90;;;1.70;;
14776;SDS011;7480;43.124;25.686;2024-01-16T07:30:48;2.23;;;1.73;;
14776;SDS011;7480;43.124;25.686;2024-01-16T07:33:15;2.27;;;1.80;;
14776;SDS011;7480;43.124;25.686;2024-01-16T07:35:41;1.63;;;1.50;;
14776;SDS011;7480;43.124;25.686;2024-01-16T07:38:10;2.27;;;1.77;;
14776;SDS011;7480;43.124;25.686;2024-01-16T07:40:36;1.63;;;1.47;;
14776;SDS011;7480;43.124;25.686;2024-01-16T07:43:03;1.87;;;1.57;;
14776;SDS011;7480;43.124;25.686;2024-01-16T07:45:30;2.63;;;1.73;;
14776;SDS011;7480;43.124;25.686;2024-01-16T07:47:56;2.53;;;1.33;;
14776;SDS011;7480;43.124;25.686;2024-01-16T07:50:23;1.50;;;1.40;;
14776;SDS011;7480;43.124;25.686;2024-01-16T07:52:50;2.23;;;1.40;;
14776;SDS011;7480;43.124;25.686;2024-01-16T07:55:17;2.37;;;1.40;;
14776;SDS011;7480;43.124;25.686;2024-01-16T07:57:48;1.30;;;1.03;;
14776;SDS011;7480;43.124;25.686;2024-01-16T08:00:15;2.73;;;1.63;;
14776;SDS011;7480;43.124;25.686;2024-01-16T08:02:42;2.33;;;1.73;;
14776;SDS011;7480;43.124;25.686;2024-01-16T08:05:09;2.60;;;1.77;;
14776;SDS011;7480;43.124;25.686;2024-01-16T08:07:36;1.60;;;1.50;;
14776;SDS011;7480;43.124;25.686;2024-01-16T08:10:03;1.67;;;1.37;;
14776;SDS011;7480;43.124;25.686;2024-01-16T08:12:30;2.30;;;1.40;;
14776;SDS011;7480;43.124;25.686;2024-01-16T08:14:57;2.00;;;1.80;;
14776;SDS011;7480;43.124;25.686;2024-01-16T08:17:23;1.23;;;1.13;;
14776;SDS011;7480;43.124;25.686;2024-01-16T08:19:50;2.07;;;1.50;;
14776;SDS011;7480;43.124;25.686;2024-01-16T08:22:17;2.23;;;1.47;;
14776;SDS011;7480;43.124;25.686;2024-01-16T08:24:43;1.73;;;1.40;;
14776;SDS011;7480;43.124;25.686;2024-01-16T08:27:10;2.73;;;1.13;;
14776;SDS011;7480;43.124;25.686;2024-01-16T08:29:36;2.13;;;1.70;;
14776;SDS011;7480;43.124;25.686;2024-01-16T08:32:03;2.07;;;1.67;;
14776;SDS011;7480;43.124;25.686;2024-01-16T08:34:30;1.17;;;1.07;;
14776;SDS011;7480;43.124;25.686;2024-01-16T08:36:57;0.87;;;0.87;;
14776;SDS011;7480;43.124;25.686;2024-01-16T08:39:23;2.10;;;1.50;;
14776;SDS011;7480;43.124;25.686;2024-01-16T08:41:50;1.50;;;1.40;;
14776;SDS011;7480;43.124;25.686;2024-01-16T08:44:17;3.53;;;1.83;;
14776;SDS011;7480;43.124;25.686;2024-01-16T08:46:44;0.90;;;0.90;;
14776;SDS011;7480;43.124;25.686;2024-01-16T08:49:11;3.17;;;2.03;;
14776;SDS011;7480;43.124;25.686;2024-01-16T08:51:38;1.13;;;1.03;;
14776;SDS011;7480;43.124;25.686;2024-01-16T08:54:06;1.80;;;1.20;;
14776;SDS011;7480;43.124;25.686;2024-01-16T08:56:32;1.67;;;1.07;;
14776;SDS011;7480;43.124;25.686;2024-01-16T08:58:59;2.30;;;1.20;;
14776;SDS011;7480;43.124;25.686;2024-01-16T09:01:26;2.87;;;1.30;;
14776;SDS011;7480;43.124;25.686;2024-01-16T09:03:53;2.33;;;1.90;;
14776;SDS011;7480;43.124;25.686;2024-01-16T09:06:19;4.30;;;1.30;;
14776;SDS011;7480;43.124;25.686;2024-01-16T09:08:46;1.43;;;1.07;;
14776;SDS011;7480;43.124;25.686;2024-01-16T09:11:13;3.80;;;1.67;;
14776;SDS011;7480;43.124;25.686;2024-01-16T09:13:39;2.10;;;1.60;;
14776;SDS011;7480;43.124;25.686;2024-01-16T09:16:06;1.63;;;1.53;;
14776;SDS011;7480;43.124;25.686;2024-01-16T09:18:32;1.30;;;1.20;;
14776;SDS011;7480;43.124;25.686;2024-01-16T09:21:00;2.67;;;1.73;;
14776;SDS011;7480;43.124;25.686;2024-01-16T09:23:27;2.07;;;1.50;;
14776;SDS011;7480;43.124;25.686;2024-01-16T09:25:53;3.70;;;2.10;;
14776;SDS011;7480;43.124;25.686;2024-01-16T09:28:20;1.93;;;1.33;;
14776;SDS011;7480;43.124;25.686;2024-01-16T09:30:47;1.63;;;1.20;;
14776;SDS011;7480;43.124;25.686;2024-01-16T09:33:14;2.13;;;1.53;;
14776;SDS011;7480;43.124;25.686;2024-01-16T09:35:42;1.33;;;1.20;;
14776;SDS011;7480;43.124;25.686;2024-01-16T09:38:09;2.00;;;1.40;;
14776;SDS011;7480;43.124;25.686;2024-01-16T09:40:36;2.43;;;1.40;;
14776;SDS011;7480;43.124;25.686;2024-01-16T09:43:03;1.87;;;1.60;;
14776;SDS011;7480;43.124;25.686;2024-01-16T09:45:31;1.70;;;1.43;;
14776;SDS011;7480;43.124;25.686;2024-01-16T09:47:58;1.83;;;1.23;;
14776;SDS011;7480;43.124;25.686;2024-01-16T09:50:26;3.00;;;1.60;;
14776;SDS011;7480;43.124;25.686;2024-01-16T09:52:52;2.27;;;1.30;;
14776;SDS011;7480;43.124;25.686;2024-01-16T09:55:25;2.90;;;1.77;;
14776;SDS011;7480;43.124;25.686;2024-01-16T09:57:52;3.10;;;1.83;;
14776;SDS011;7480;43.124;25.686;2024-01-16T10:00:19;1.93;;;1.57;;
14776;SDS011;7480;43.124;25.686;2024-01-16T10:02:47;1.60;;;1.50;;
14776;SDS011;7480;43.124;25.686;2024-01-16T10:05:13;1.70;;;1.60;;
14776;SDS011;7480;43.124;25.686;2024-01-16T10:07:42;2.57;;;1.63;;
14776;SDS011;7480;43.124;25.686;2024-01-16T10:10:12;5.77;;;2.30;;
14776;SDS011;7480;43.124;25.686;2024-01-16T10:12:39;2.30;;;1.80;;
14776;SDS011;7480;43.124;25.686;2024-01-16T10:15:06;3.53;;;1.93;;
14776;SDS011;7480;43.124;25.686;2024-01-16T10:17:39;3.50;;;2.63;;
14776;SDS011;7480;43.124;25.686;2024-01-16T10:20:07;3.33;;;2.50;;
14776;SDS011;7480;43.124;25.686;2024-01-16T10:22:40;2.70;;;2.17;;
14776;SDS011;7480;43.124;25.686;2024-01-16T10:25:07;2.60;;;2.13;;
14776;SDS011;7480;43.124;25.686;2024-01-16T10:27:35;1.93;;;1.80;;
14776;SDS011;7480;43.124;25.686;2024-01-16T10:30:02;2.80;;;2.00;;
14776;SDS011;7480;43.124;25.686;2024-01-16T10:32:50;3.87;;;2.37;;
14776;SDS011;7480;43.124;25.686;2024-01-16T10:35:17;2.13;;;1.70;;
14776;SDS011;7480;43.124;25.686;2024-01-16T10:37:48;8.40;;;2.57;;
14776;SDS011;7480;43.124;25.686;2024-01-16T10:40:18;1.70;;;1.57;;
14776;SDS011;7480;43.124;25.686;2024-01-16T10:42:59;2.50;;;1.53;;
14776;SDS011;7480;43.124;25.686;2024-01-16T10:45:27;1.50;;;1.20;;
14776;SDS011;7480;43.124;25.686;2024-01-16T10:50:31;1.30;;;1.10;;
14776;SDS011;7480;43.124;25.686;2024-01-16T10:53:07;1.63;;;1.53;;
14776;SDS011;7480;43.124;25.686;2024-01-16T10:55:41;2.10;;;1.60;;
14776;SDS011;7480;43.124;25.686;2024-01-16T10:58:09;2.03;;;1.83;;
14776;SDS011;7480;43.124;25.686;2024-01-16T11:00:39;2.70;;;2.10;;
14776;SDS011;7480;43.124;25.686;2024-01-16T11:03:07;2.07;;;1.80;;
14776;SDS011;7480;43.124;25.686;2024-01-16T11:05:36;2.90;;;2.37;;
14776;SDS011;7480;43.124;25.686;2024-01-16T11:08:03;2.93;;;2.37;;
14776;SDS011;7480;43.124;25.686;2024-01-16T11:10:31;2.83;;;2.10;;
14776;SDS011;7480;43.124;25.686;2024-01-16T11:13:02;2.30;;;1.90;;
14776;SDS011;7480;43.124;25.686;2024-01-16T11:15:31;2.90;;;2.63;;
14776;SDS011;7480;43.124;25.686;2024-01-16T11:17:59;3.90;;;2.67;;
14776;SDS011;7480;43.124;25.686;2024-01-16T11:20:26;3.43;;;2.37;;
14776;SDS011;7480;43.124;25.686;2024-01-16T11:23:13;3.30;;;2.30;;
14776;SDS011;7480;43.124;25.686;2024-01-16T11:25:40;2.80;;;2.40;;
14776;SDS011;7480;43.124;25.686;2024-01-16T11:28:11;3.00;;;2.37;;
14776;SDS011;7480;43.124;25.686;2024-01-16T11:30:38;4.33;;;2.20;;
14776;SDS011;7480;43.124;25.686;2024-01-16T11:33:05;2.27;;;2.07;;
14776;SDS011;7480;43.124;25.686;2024-01-16T11:35:32;3.03;;;2.20;;
14776;SDS011;7480;43.124;25.686;2024-01-16T11:38:06;2.27;;;1.87;;
14776;SDS011;7480;43.124;25.686;2024-01-16T11:40:34;2.60;;;2.40;;
14776;SDS011;7480;43.124;25.686;2024-01-16T11:45:50;2.90;;;2.47;;
14776;SDS011;7480;43.124;25.686;2024-01-16T11:48:17;3.07;;;2.67;;
14776;SDS011;7480;43.124;25.686;2024-01-16T11:50:44;2.40;;;2.17;;
14776;SDS011;7480;43.124;25.686;2024-01-16T11:53:30;4.13;;;2.50;;
14776;SDS011;7480;43.124;25.686;2024-01-16T12:01:09;3.57;;;2.67;;
14776;SDS011;7480;43.124;25.686;2024-01-16T12:03:38;3.13;;;2.47;;
14776;SDS011;7480;43.124;25.686;2024-01-16T12:06:05;2.63;;;2.40;;
14776;SDS011;7480;43.124;25.686;2024-01-16T12:08:33;3.77;;;2.93;;
14776;SDS011;7480;43.124;25.686;2024-01-16T12:11:00;2.93;;;2.43;;
14776;SDS011;7480;43.124;25.686;2024-01-16T12:13:27;4.17;;;2.83;;
14776;SDS011;7480;43.124;25.686;2024-01-16T12:16:00;3.50;;;2.87;;
14776;SDS011;7480;43.124;25.686;2024-01-16T12:18:27;3.10;;;2.43;;
14776;SDS011;7480;43.124;25.686;2024-01-16T12:21:07;4.20;;;3.03;;
14776;SDS011;7480;43.124;25.686;2024-01-16T12:23:35;2.77;;;2.27;;
14776;SDS011;7480;43.124;25.686;2024-01-16T12:26:04;3.80;;;3.03;;
14776;SDS011;7480;43.124;25.686;2024-01-16T12:28:31;3.33;;;2.70;;
14776;SDS011;7480;43.124;25.686;2024-01-16T12:30:59;3.20;;;2.40;;
14776;SDS011;7480;43.124;25.686;2024-01-16T12:33:27;2.83;;;2.43;;
14776;SDS011;7480;43.124;25.686;2024-01-16T12:36:01;3.53;;;2.07;;
14776;SDS011;7480;43.124;25.686;2024-01-16T12:38:29;3.33;;;2.53;;
14776;SDS011;7480;43.124;25.686;2024-01-16T12:40:56;3.23;;;2.50;;
14776;SDS011;7480;43.124;25.686;2024-01-16T12:43:23;3.80;;;2.83;;
14776;SDS011;7480;43.124;25.686;2024-01-16T12:45:55;4.03;;;3.08;;
14776;SDS011;7480;43.124;25.686;2024-01-16T12:48:23;2.60;;;2.20;;
14776;SDS011;7480;43.124;25.686;2024-01-16T12:50:50;2.90;;;2.40;;
14776;SDS011;7480;43.124;25.686;2024-01-16T12:53:21;4.17;;;2.70;;
14776;SDS011;7480;43.124;25.686;2024-01-16T12:55:57;3.17;;;2.73;;
14776;SDS011;7480;43.124;25.686;2024-01-16T12:58:23;4.50;;;2.80;;
14776;SDS011;7480;43.124;25.686;2024-01-16T13:00:51;3.07;;;2.40;;
14776;SDS011;7480;43.124;25.686;2024-01-16T13:03:21;2.40;;;1.90;;
14776;SDS011;7480;43.124;25.686;2024-01-16T13:05:57;3.10;;;2.50;;
14776;SDS011;7480;43.124;25.686;2024-01-16T13:08:24;2.43;;;1.97;;
14776;SDS011;7480;43.124;25.686;2024-01-16T13:11:06;2.97;;;2.10;;
14776;SDS011;7480;43.124;25.686;2024-01-16T13:13:33;2.43;;;2.23;;
14776;SDS011;7480;43.124;25.686;2024-01-16T13:16:00;4.40;;;3.17;;
14776;SDS011;7480;43.124;25.686;2024-01-16T13:18:28;3.70;;;2.70;;
14776;SDS011;7480;43.124;25.686;2024-01-16T13:20:55;2.97;;;2.10;;
14776;SDS011;7480;43.124;25.686;2024-01-16T13:23:22;3.20;;;2.50;;
14776;SDS011;7480;43.124;25.686;2024-01-16T13:25:51;3.23;;;2.33;;
14776;SDS011;7480;43.124;25.686;2024-01-16T13:28:19;5.17;;;2.80;;
14776;SDS011;7480;43.124;25.686;2024-01-16T13:30:49;4.77;;;4.27;;
14776;SDS011;7480;43.124;25.686;2024-01-16T13:33:16;4.27;;;2.67;;
14776;SDS011;7480;43.124;25.686;2024-01-16T13:35:44;5.00;;;3.13;;
14776;SDS011;7480;43.124;25.686;2024-01-16T13:38:11;9.87;;;5.07;;
14776;SDS011;7480;43.124;25.686;2024-01-16T13:40:38;5.97;;;4.70;;
14776;SDS011;7480;43.124;25.686;2024-01-16T13:43:05;7.00;;;4.17;;
14776;SDS011;7480;43.124;25.686;2024-01-16T13:45:33;5.30;;;3.50;;
14776;SDS011;7480;43.124;25.686;2024-01-16T13:48:00;4.20;;;3.30;;
14776;SDS011;7480;43.124;25.686;2024-01-16T13:50:28;2.40;;;2.00;;
14776;SDS011;7480;43.124;25.686;2024-01-16T13:52:56;4.03;;;3.40;;
14776;SDS011;7480;43.124;25.686;2024-01-16T13:55:23;4.77;;;3.60;;
14776;SDS011;7480;43.124;25.686;2024-01-16T13:57:49;6.00;;;4.33;;
14776;SDS011;7480;43.124;25.686;2024-01-16T14:00:18;8.23;;;4.67;;
14776;SDS011;7480;43.124;25.686;2024-01-16T14:02:45;9.07;;;4.83;;
14776;SDS011;7480;43.124;25.686;2024-01-16T14:05:15;7.27;;;4.47;;
14776;SDS011;7480;43.124;25.686;2024-01-16T14:07:45;5.67;;;4.27;;
14776;SDS011;7480;43.124;25.686;2024-01-16T14:10:17;14.53;;;8.37;;
14776;SDS011;7480;43.124;25.686;2024-01-16T14:12:45;4.17;;;3.13;;
14776;SDS011;7480;43.124;25.686;2024-01-16T14:15:12;4.67;;;3.57;;
14776;SDS011;7480;43.124;25.686;2024-01-16T14:17:44;4.80;;;3.97;;
14776;SDS011;7480;43.124;25.686;2024-01-16T14:20:11;4.73;;;3.80;;
14776;SDS011;7480;43.124;25.686;2024-01-16T14:22:38;4.47;;;3.53;;
14776;SDS011;7480;43.124;25.686;2024-01-16T14:25:07;9.50;;;5.87;;
14776;SDS011;7480;43.124;25.686;2024-01-16T14:27:38;6.77;;;4.30;;
14776;SDS011;7480;43.124;25.686;2024-01-16T14:30:06;4.23;;;3.80;;
14776;SDS011;7480;43.124;25.686;2024-01-16T14:32:33;5.13;;;3.97;;
14776;SDS011;7480;43.124;25.686;2024-01-16T14:35:00;4.50;;;3.30;;
14776;SDS011;7480;43.124;25.686;2024-01-16T14:37:27;7.47;;;5.00;;
14776;SDS011;7480;43.124;25.686;2024-01-16T14:39:54;3.83;;;3.13;;
14776;SDS011;7480;43.124;25.686;2024-01-16T14:42:20;4.67;;;4.00;;
14776;SDS011;7480;43.124;25.686;2024-01-16T14:44:48;6.03;;;4.30;;
14776;SDS011;7480;43.124;25.686;2024-01-16T14:47:15;5.00;;;4.03;;
14776;SDS011;7480;43.124;25.686;2024-01-16T14:49:42;8.53;;;5.37;;
14776;SDS011;7480;43.124;25.686;2024-01-16T14:52:08;9.30;;;6.87;;
14776;SDS011;7480;43.124;25.686;2024-01-16T14:54:35;10.00;;;7.00;;
14776;SDS011;7480;43.124;25.686;2024-01-16T14:57:02;12.57;;;8.83;;